sensor_id;sensor_type;location;lat;lon;timestamp;P1;durP1;ratioP1;P2;durP2;ratioP2
53483;SDS011;75581;50.088;19.966;2024-03-07T00:01:02;38.40;;;20.50;;
53483;SDS011;75581;50.088;19.966;2024-03-07T00:03:33;37.90;;;21.90;;
53483;SDS011;75581;50.088;19.966;2024-03-07T00:06:02;40.30;;;23.10;;
53483;SDS011;75581;50.088;19.966;2024-03-07T00:08:32;41.40;;;23.70;;
53483;SDS011;75581;50.088;19.966;2024-03-07T00:11:01;44.00;;;22.70;;
53483;SDS011;75581;50.088;19.966;2024-03-07T00:13:30;39.00;;;21.30;;
53483;SDS011;75581;50.088;19.966;2024-03-07T00:15:59;42.30;;;23.60;;
53483;SDS011;75581;50.088;19.966;2024-03-07T00:18:30;38.40;;;21.70;;
53483;SDS011;75581;50.088;19.966;2024-03-07T00:20:59;39.90;;;22.70;;
53483;SDS011;75581;50.088;19.966;2024-03-07T00:23:28;39.70;;;22.60;;
53483;SDS011;75581;50.088;19.966;2024-03-07T00:25:59;41.80;;;22.90;;
53483;SDS011;75581;50.088;19.966;2024-03-07T00:28:28;40.10;;;22.20;;
53483;SDS011;75581;50.088;19.966;2024-03-07T00:31:00;43.30;;;23.70;;
53483;SDS011;75581;50.088;19.966;2024-03-07T00:33:30;40.50;;;22.70;;
53483;SDS011;75581;50.088;19.966;2024-03-07T00:36:18;44.10;;;22.70;;
53483;SDS011;75581;50.088;19.966;2024-03-07T00:38:50;39.50;;;22.90;;
53483;SDS011;75581;50.088;19.966;2024-03-07T00:41:19;39.40;;;21.60;;
53483;SDS011;75581;50.088;19.966;2024-03-07T00:43:49;46.80;;;23.70;;
53483;SDS011;75581;50.088;19.966;2024-03-07T00:46:19;42.60;;;23.40;;
53483;SDS011;75581;50.088;19.966;2024-03-07T00:48:48;45.40;;;23.50;;
53483;SDS011;75581;50.088;19.966;2024-03-07T00:51:17;43.30;;;24.30;;
53483;SDS011;75581;50.088;19.966;2024-03-07T00:53:46;42.90;;;23.80;;
53483;SDS011;75581;50.088;19.966;2024-03-07T00:56:15;43.50;;;24.30;;
53483;SDS011;75581;50.088;19.966;2024-03-07T00:58:45;46.40;;;25.20;;
53483;SDS011;75581;50.088;19.966;2024-03-07T01:01:14;44.40;;;25.10;;
53483;SDS011;75581;50.088;19.966;2024-03-07T01:03:44;46.80;;;26.40;;
53483;SDS011;75581;50.088;19.966;2024-03-07T01:06:13;40.60;;;23.20;;
53483;SDS011;75581;50.088;19.966;2024-03-07T01:08:43;48.10;;;24.30;;
53483;SDS011;75581;50.088;19.966;2024-03-07T01:11:12;45.50;;;25.30;;
53483;SDS011;75581;50.088;19.966;2024-03-07T01:13:42;49.50;;;24.60;;
53483;SDS011;75581;50.088;19.966;2024-03-07T01:16:11;41.10;;;23.80;;
53483;SDS011;75581;50.088;19.966;2024-03-07T01:18:40;45.30;;;24.30;;
53483;SDS011;75581;50.088;19.966;2024-03-07T01:21:10;44.50;;;23.50;;
53483;SDS011;75581;50.088;19.966;2024-03-07T01:23:39;41.90;;;23.40;;
53483;SDS011;75581;50.088;19.966;2024-03-07T01:26:08;42.60;;;23.90;;
53483;SDS011;75581;50.088;19.966;2024-03-07T01:28:38;41.10;;;23.10;;
53483;SDS011;75581;50.088;19.966;2024-03-07T01:31:06;42.70;;;22.90;;
53483;SDS011;75581;50.088;19.966;2024-03-07T01:33:36;46.20;;;24.90;;
53483;SDS011;75581;50.088;19.966;2024-03-07T01:36:05;40.40;;;24.20;;
53483;SDS011;75581;50.088;19.966;2024-03-07T01:38:35;40.10;;;22.20;;
53483;SDS011;75581;50.088;19.966;2024-03-07T01:41:05;45.00;;;24.90;;
53483;SDS011;75581;50.088;19.966;2024-03-07T01:43:34;43.30;;;24.10;;
53483;SDS011;75581;50.088;19.966;2024-03-07T01:46:03;49.10;;;25.20;;
53483;SDS011;75581;50.088;19.966;2024-03-07T01:48:33;47.30;;;23.60;;
53483;SDS011;75581;50.088;19.966;2024-03-07T01:51:03;46.50;;;25.10;;
53483;SDS011;75581;50.088;19.966;2024-03-07T01:53:33;46.10;;;24.30;;
53483;SDS011;75581;50.088;19.966;2024-03-07T01:56:03;44.40;;;24.30;;
53483;SDS011;75581;50.088;19.966;2024-03-07T01:58:33;42.80;;;24.30;;
53483;SDS011;75581;50.088;19.966;2024-03-07T02:01:04;44.70;;;23.50;;
53483;SDS011;75581;50.088;19.966;2024-03-07T02:03:34;44.80;;;24.30;;
53483;SDS011;75581;50.088;19.966;2024-03-07T02:06:05;52.20;;;25.20;;
53483;SDS011;75581;50.088;19.966;2024-03-07T02:08:34;43.90;;;24.60;;
53483;SDS011;75581;50.088;19.966;2024-03-07T02:11:05;45.00;;;24.10;;
53483;SDS011;75581;50.088;19.966;2024-03-07T02:13:35;41.60;;;22.80;;
53483;SDS011;75581;50.088;19.966;2024-03-07T02:16:04;47.30;;;24.60;;
53483;SDS011;75581;50.088;19.966;2024-03-07T02:18:34;47.50;;;24.40;;
53483;SDS011;75581;50.088;19.966;2024-03-07T02:21:07;44.20;;;24.00;;
53483;SDS011;75581;50.088;19.966;2024-03-07T02:23:39;44.30;;;25.00;;
53483;SDS011;75581;50.088;19.966;2024-03-07T02:26:09;42.00;;;24.40;;
53483;SDS011;75581;50.088;19.966;2024-03-07T02:28:39;47.20;;;25.00;;
53483;SDS011;75581;50.088;19.966;2024-03-07T02:31:08;45.30;;;24.80;;
53483;SDS011;75581;50.088;19.966;2024-03-07T02:33:37;43.70;;;23.40;;
53483;SDS011;75581;50.088;19.966;2024-03-07T02:36:06;47.30;;;25.40;;
53483;SDS011;75581;50.088;19.966;2024-03-07T02:38:35;51.80;;;25.20;;
53483;SDS011;75581;50.088;19.966;2024-03-07T02:41:05;46.50;;;24.50;;
53483;SDS011;75581;50.088;19.966;2024-03-07T02:43:34;47.30;;;24.40;;
53483;SDS011;75581;50.088;19.966;2024-03-07T02:46:06;48.60;;;25.70;;
53483;SDS011;75581;50.088;19.966;2024-03-07T02:48:35;48.90;;;25.70;;
53483;SDS011;75581;50.088;19.966;2024-03-07T02:51:04;52.50;;;26.50;;
53483;SDS011;75581;50.088;19.966;2024-03-07T02:53:36;51.20;;;25.10;;
53483;SDS011;75581;50.088;19.966;2024-03-07T02:56:07;50.00;;;26.70;;
53483;SDS011;75581;50.088;19.966;2024-03-07T02:58:36;51.20;;;25.20;;
53483;SDS011;75581;50.088;19.966;2024-03-07T03:01:05;52.90;;;26.30;;
53483;SDS011;75581;50.088;19.966;2024-03-07T03:03:35;56.80;;;27.40;;
53483;SDS011;75581;50.088;19.966;2024-03-07T03:06:04;49.10;;;24.90;;
53483;SDS011;75581;50.088;19.966;2024-03-07T03:08:34;52.70;;;27.60;;
53483;SDS011;75581;50.088;19.966;2024-03-07T03:11:03;52.60;;;27.20;;
53483;SDS011;75581;50.088;19.966;2024-03-07T03:13:34;50.10;;;26.30;;
53483;SDS011;75581;50.088;19.966;2024-03-07T03:16:07;55.90;;;26.90;;
53483;SDS011;75581;50.088;19.966;2024-03-07T03:18:37;49.30;;;26.40;;
53483;SDS011;75581;50.088;19.966;2024-03-07T03:21:06;63.30;;;29.00;;
53483;SDS011;75581;50.088;19.966;2024-03-07T03:23:36;51.00;;;26.10;;
53483;SDS011;75581;50.088;19.966;2024-03-07T03:26:05;52.90;;;26.00;;
53483;SDS011;75581;50.088;19.966;2024-03-07T03:28:37;51.50;;;26.30;;
53483;SDS011;75581;50.088;19.966;2024-03-07T03:31:09;56.20;;;28.40;;
53483;SDS011;75581;50.088;19.966;2024-03-07T03:33:39;56.60;;;27.60;;
53483;SDS011;75581;50.088;19.966;2024-03-07T03:36:09;58.60;;;28.00;;
53483;SDS011;75581;50.088;19.966;2024-03-07T03:38:39;58.30;;;27.30;;
53483;SDS011;75581;50.088;19.966;2024-03-07T03:41:08;54.60;;;26.80;;
53483;SDS011;75581;50.088;19.966;2024-03-07T03:43:38;58.50;;;28.90;;
53483;SDS011;75581;50.088;19.966;2024-03-07T03:46:11;54.50;;;27.80;;
53483;SDS011;75581;50.088;19.966;2024-03-07T03:48:40;52.80;;;28.00;;
53483;SDS011;75581;50.088;19.966;2024-03-07T03:51:10;54.70;;;26.50;;
53483;SDS011;75581;50.088;19.966;2024-03-07T03:53:41;50.70;;;26.90;;
53483;SDS011;75581;50.088;19.966;2024-03-07T03:56:10;50.90;;;26.90;;
53483;SDS011;75581;50.088;19.966;2024-03-07T03:58:44;56.20;;;28.20;;
53483;SDS011;75581;50.088;19.966;2024-03-07T04:01:13;59.20;;;28.40;;
53483;SDS011;75581;50.088;19.966;2024-03-07T04:03:43;58.50;;;29.20;;
53483;SDS011;75581;50.088;19.966;2024-03-07T04:06:15;57.20;;;28.30;;
53483;SDS011;75581;50.088;19.966;2024-03-07T04:08:44;55.60;;;27.00;;
53483;SDS011;75581;50.088;19.966;2024-03-07T04:11:13;58.80;;;29.00;;
53483;SDS011;75581;50.088;19.966;2024-03-07T04:13:44;53.00;;;26.80;;
53483;SDS011;75581;50.088;19.966;2024-03-07T04:16:14;58.10;;;28.40;;
53483;SDS011;75581;50.088;19.966;2024-03-07T04:18:44;61.60;;;29.80;;
53483;SDS011;75581;50.088;19.966;2024-03-07T04:21:13;55.40;;;28.40;;
53483;SDS011;75581;50.088;19.966;2024-03-07T04:23:42;56.10;;;27.20;;
53483;SDS011;75581;50.088;19.966;2024-03-07T04:26:15;61.70;;;30.70;;
53483;SDS011;75581;50.088;19.966;2024-03-07T04:28:45;61.40;;;29.70;;
53483;SDS011;75581;50.088;19.966;2024-03-07T04:31:14;58.70;;;28.10;;
53483;SDS011;75581;50.088;19.966;2024-03-07T04:33:43;57.60;;;29.30;;
53483;SDS011;75581;50.088;19.966;2024-03-07T04:36:12;55.70;;;28.20;;
53483;SDS011;75581;50.088;19.966;2024-03-07T04:38:41;60.60;;;29.90;;
53483;SDS011;75581;50.088;19.966;2024-03-07T04:41:14;55.20;;;28.20;;
53483;SDS011;75581;50.088;19.966;2024-03-07T04:43:46;63.10;;;30.60;;
53483;SDS011;75581;50.088;19.966;2024-03-07T04:46:15;59.30;;;28.50;;
53483;SDS011;75581;50.088;19.966;2024-03-07T04:48:44;55.50;;;27.40;;
53483;SDS011;75581;50.088;19.966;2024-03-07T04:51:13;53.00;;;28.80;;
53483;SDS011;75581;50.088;19.966;2024-03-07T04:53:42;60.10;;;28.60;;
53483;SDS011;75581;50.088;19.966;2024-03-07T04:56:11;59.20;;;29.90;;
53483;SDS011;75581;50.088;19.966;2024-03-07T04:58:43;56.90;;;28.50;;
53483;SDS011;75581;50.088;19.966;2024-03-07T05:01:12;57.60;;;28.50;;
53483;SDS011;75581;50.088;19.966;2024-03-07T05:03:41;59.20;;;31.00;;
53483;SDS011;75581;50.088;19.966;2024-03-07T05:06:11;55.00;;;28.70;;
53483;SDS011;75581;50.088;19.966;2024-03-07T05:08:40;65.80;;;31.10;;
53483;SDS011;75581;50.088;19.966;2024-03-07T05:11:12;57.70;;;29.90;;
53483;SDS011;75581;50.088;19.966;2024-03-07T05:13:41;63.70;;;31.60;;
53483;SDS011;75581;50.088;19.966;2024-03-07T05:16:11;63.50;;;31.60;;
53483;SDS011;75581;50.088;19.966;2024-03-07T05:18:40;62.30;;;30.80;;
53483;SDS011;75581;50.088;19.966;2024-03-07T05:21:12;57.00;;;29.40;;
53483;SDS011;75581;50.088;19.966;2024-03-07T05:24:00;57.20;;;29.90;;
53483;SDS011;75581;50.088;19.966;2024-03-07T05:26:30;58.20;;;31.30;;
53483;SDS011;75581;50.088;19.966;2024-03-07T05:29:04;58.50;;;29.40;;
53483;SDS011;75581;50.088;19.966;2024-03-07T05:31:36;62.70;;;31.40;;
53483;SDS011;75581;50.088;19.966;2024-03-07T05:34:06;60.30;;;30.10;;
53483;SDS011;75581;50.088;19.966;2024-03-07T05:36:38;56.50;;;31.50;;
53483;SDS011;75581;50.088;19.966;2024-03-07T05:39:16;57.80;;;29.60;;
53483;SDS011;75581;50.088;19.966;2024-03-07T05:41:47;53.50;;;29.20;;
53483;SDS011;75581;50.088;19.966;2024-03-07T05:44:16;60.80;;;30.10;;
53483;SDS011;75581;50.088;19.966;2024-03-07T05:46:47;55.60;;;29.80;;
53483;SDS011;75581;50.088;19.966;2024-03-07T05:49:17;60.60;;;29.50;;
53483;SDS011;75581;50.088;19.966;2024-03-07T05:51:46;56.80;;;30.40;;
53483;SDS011;75581;50.088;19.966;2024-03-07T05:54:16;60.40;;;30.40;;
53483;SDS011;75581;50.088;19.966;2024-03-07T05:56:45;62.80;;;30.50;;
53483;SDS011;75581;50.088;19.966;2024-03-07T05:59:15;57.80;;;29.80;;
53483;SDS011;75581;50.088;19.966;2024-03-07T06:01:45;58.60;;;30.70;;
53483;SDS011;75581;50.088;19.966;2024-03-07T06:04:16;60.70;;;31.00;;
53483;SDS011;75581;50.088;19.966;2024-03-07T06:06:45;59.50;;;29.10;;
53483;SDS011;75581;50.088;19.966;2024-03-07T06:09:15;56.20;;;30.60;;
53483;SDS011;75581;50.088;19.966;2024-03-07T06:11:49;55.90;;;29.00;;
53483;SDS011;75581;50.088;19.966;2024-03-07T06:14:19;50.70;;;27.90;;
53483;SDS011;75581;50.088;19.966;2024-03-07T06:16:49;52.40;;;28.70;;
53483;SDS011;75581;50.088;19.966;2024-03-07T06:19:18;57.80;;;30.50;;
53483;SDS011;75581;50.088;19.966;2024-03-07T06:21:47;57.60;;;30.00;;
53483;SDS011;75581;50.088;19.966;2024-03-07T06:24:17;53.50;;;28.90;;
53483;SDS011;75581;50.088;19.966;2024-03-07T06:26:47;57.00;;;31.30;;
53483;SDS011;75581;50.088;19.966;2024-03-07T06:29:28;57.30;;;29.50;;
53483;SDS011;75581;50.088;19.966;2024-03-07T06:31:57;55.50;;;29.20;;
53483;SDS011;75581;50.088;19.966;2024-03-07T06:34:27;60.10;;;30.00;;
53483;SDS011;75581;50.088;19.966;2024-03-07T06:36:58;55.20;;;28.70;;
53483;SDS011;75581;50.088;19.966;2024-03-07T06:39:27;55.80;;;29.40;;
53483;SDS011;75581;50.088;19.966;2024-03-07T06:41:56;55.50;;;29.20;;
53483;SDS011;75581;50.088;19.966;2024-03-07T06:44:26;54.60;;;29.70;;
53483;SDS011;75581;50.088;19.966;2024-03-07T06:46:55;54.90;;;29.70;;
53483;SDS011;75581;50.088;19.966;2024-03-07T06:49:26;51.90;;;28.60;;
53483;SDS011;75581;50.088;19.966;2024-03-07T06:51:56;51.70;;;27.60;;
53483;SDS011;75581;50.088;19.966;2024-03-07T06:54:26;54.40;;;28.70;;
53483;SDS011;75581;50.088;19.966;2024-03-07T06:56:55;54.70;;;28.10;;
53483;SDS011;75581;50.088;19.966;2024-03-07T06:59:24;52.00;;;28.00;;
53483;SDS011;75581;50.088;19.966;2024-03-07T07:01:53;53.10;;;28.60;;
53483;SDS011;75581;50.088;19.966;2024-03-07T07:04:22;55.20;;;28.70;;
53483;SDS011;75581;50.088;19.966;2024-03-07T07:06:53;51.40;;;27.20;;
53483;SDS011;75581;50.088;19.966;2024-03-07T07:09:23;57.80;;;28.50;;
53483;SDS011;75581;50.088;19.966;2024-03-07T07:11:54;57.90;;;30.10;;
53483;SDS011;75581;50.088;19.966;2024-03-07T07:14:23;53.60;;;27.20;;
53483;SDS011;75581;50.088;19.966;2024-03-07T07:16:52;55.30;;;27.90;;
53483;SDS011;75581;50.088;19.966;2024-03-07T07:19:22;55.40;;;28.90;;
53483;SDS011;75581;50.088;19.966;2024-03-07T07:21:51;56.90;;;29.10;;
53483;SDS011;75581;50.088;19.966;2024-03-07T07:24:22;57.10;;;28.60;;
53483;SDS011;75581;50.088;19.966;2024-03-07T07:26:53;52.10;;;28.10;;
53483;SDS011;75581;50.088;19.966;2024-03-07T07:29:23;52.30;;;26.60;;
53483;SDS011;75581;50.088;19.966;2024-03-07T07:31:53;48.10;;;26.10;;
53483;SDS011;75581;50.088;19.966;2024-03-07T07:34:22;52.20;;;28.00;;
53483;SDS011;75581;50.088;19.966;2024-03-07T07:36:51;47.80;;;27.40;;
53483;SDS011;75581;50.088;19.966;2024-03-07T07:39:21;50.70;;;26.80;;
53483;SDS011;75581;50.088;19.966;2024-03-07T07:41:51;50.60;;;27.40;;
53483;SDS011;75581;50.088;19.966;2024-03-07T07:44:21;51.40;;;26.60;;
53483;SDS011;75581;50.088;19.966;2024-03-07T07:46:50;44.10;;;24.50;;
53483;SDS011;75581;50.088;19.966;2024-03-07T07:49:20;48.30;;;26.30;;
53483;SDS011;75581;50.088;19.966;2024-03-07T07:51:49;46.40;;;25.70;;
53483;SDS011;75581;50.088;19.966;2024-03-07T07:54:19;50.80;;;27.30;;
53483;SDS011;75581;50.088;19.966;2024-03-07T07:56:49;46.50;;;26.00;;
53483;SDS011;75581;50.088;19.966;2024-03-07T07:59:20;47.70;;;25.80;;
53483;SDS011;75581;50.088;19.966;2024-03-07T08:01:49;46.40;;;25.80;;
53483;SDS011;75581;50.088;19.966;2024-03-07T08:04:21;43.80;;;24.30;;
53483;SDS011;75581;50.088;19.966;2024-03-07T08:06:50;46.60;;;26.10;;
53483;SDS011;75581;50.088;19.966;2024-03-07T08:09:20;48.40;;;26.20;;
53483;SDS011;75581;50.088;19.966;2024-03-07T08:11:50;51.10;;;26.70;;
53483;SDS011;75581;50.088;19.966;2024-03-07T08:14:21;51.00;;;27.60;;
53483;SDS011;75581;50.088;19.966;2024-03-07T08:16:50;46.70;;;25.50;;
53483;SDS011;75581;50.088;19.966;2024-03-07T08:19:20;45.20;;;24.70;;
53483;SDS011;75581;50.088;19.966;2024-03-07T08:21:49;51.20;;;25.80;;
53483;SDS011;75581;50.088;19.966;2024-03-07T08:24:19;50.20;;;26.20;;
53483;SDS011;75581;50.088;19.966;2024-03-07T08:26:48;45.30;;;25.40;;
53483;SDS011;75581;50.088;19.966;2024-03-07T08:29:17;46.00;;;25.80;;
53483;SDS011;75581;50.088;19.966;2024-03-07T08:31:47;52.20;;;26.40;;
53483;SDS011;75581;50.088;19.966;2024-03-07T08:34:16;45.50;;;24.90;;
53483;SDS011;75581;50.088;19.966;2024-03-07T08:36:45;45.50;;;25.60;;
53483;SDS011;75581;50.088;19.966;2024-03-07T08:39:15;42.00;;;24.10;;
53483;SDS011;75581;50.088;19.966;2024-03-07T08:41:45;45.70;;;25.50;;
53483;SDS011;75581;50.088;19.966;2024-03-07T08:44:15;47.60;;;24.90;;
53483;SDS011;75581;50.088;19.966;2024-03-07T08:46:44;48.20;;;26.40;;
53483;SDS011;75581;50.088;19.966;2024-03-07T08:49:14;49.90;;;27.40;;
53483;SDS011;75581;50.088;19.966;2024-03-07T08:51:46;46.30;;;25.80;;
53483;SDS011;75581;50.088;19.966;2024-03-07T08:54:16;47.60;;;25.30;;
53483;SDS011;75581;50.088;19.966;2024-03-07T08:56:45;45.90;;;25.10;;
53483;SDS011;75581;50.088;19.966;2024-03-07T08:59:14;48.50;;;24.40;;
53483;SDS011;75581;50.088;19.966;2024-03-07T09:01:45;52.60;;;26.50;;
53483;SDS011;75581;50.088;19.966;2024-03-07T09:04:15;44.50;;;24.00;;
53483;SDS011;75581;50.088;19.966;2024-03-07T09:06:46;42.40;;;24.00;;
53483;SDS011;75581;50.088;19.966;2024-03-07T09:09:15;44.90;;;25.20;;
53483;SDS011;75581;50.088;19.966;2024-03-07T09:11:46;45.60;;;24.70;;
53483;SDS011;75581;50.088;19.966;2024-03-07T09:14:16;49.80;;;26.00;;
53483;SDS011;75581;50.088;19.966;2024-03-07T09:16:46;43.20;;;23.90;;
53483;SDS011;75581;50.088;19.966;2024-03-07T09:19:17;46.20;;;25.70;;
53483;SDS011;75581;50.088;19.966;2024-03-07T09:21:48;48.40;;;25.50;;
53483;SDS011;75581;50.088;19.966;2024-03-07T09:24:21;47.90;;;25.20;;
53483;SDS011;75581;50.088;19.966;2024-03-07T09:26:50;49.00;;;26.10;;
53483;SDS011;75581;50.088;19.966;2024-03-07T09:29:21;43.20;;;24.10;;
53483;SDS011;75581;50.088;19.966;2024-03-07T09:31:50;43.50;;;23.60;;
53483;SDS011;75581;50.088;19.966;2024-03-07T09:34:20;43.40;;;24.20;;
53483;SDS011;75581;50.088;19.966;2024-03-07T09:36:50;45.70;;;24.20;;
53483;SDS011;75581;50.088;19.966;2024-03-07T09:39:20;51.20;;;24.60;;
53483;SDS011;75581;50.088;19.966;2024-03-07T09:41:49;42.30;;;24.30;;
53483;SDS011;75581;50.088;19.966;2024-03-07T09:44:20;42.80;;;24.50;;
53483;SDS011;75581;50.088;19.966;2024-03-07T09:46:57;46.60;;;24.10;;
53483;SDS011;75581;50.088;19.966;2024-03-07T09:49:29;46.00;;;24.30;;
53483;SDS011;75581;50.088;19.966;2024-03-07T09:51:58;41.30;;;24.30;;
53483;SDS011;75581;50.088;19.966;2024-03-07T09:54:29;47.20;;;24.90;;
53483;SDS011;75581;50.088;19.966;2024-03-07T09:56:59;48.30;;;26.30;;
53483;SDS011;75581;50.088;19.966;2024-03-07T09:59:32;51.60;;;26.50;;
53483;SDS011;75581;50.088;19.966;2024-03-07T10:02:08;42.60;;;23.40;;
53483;SDS011;75581;50.088;19.966;2024-03-07T10:04:42;43.80;;;24.80;;
53483;SDS011;75581;50.088;19.966;2024-03-07T10:07:17;46.20;;;25.60;;
53483;SDS011;75581;50.088;19.966;2024-03-07T10:09:47;42.80;;;24.20;;
53483;SDS011;75581;50.088;19.966;2024-03-07T10:12:19;44.90;;;25.00;;
53483;SDS011;75581;50.088;19.966;2024-03-07T10:14:50;45.10;;;24.70;;
53483;SDS011;75581;50.088;19.966;2024-03-07T10:17:20;41.90;;;24.00;;
53483;SDS011;75581;50.088;19.966;2024-03-07T10:19:52;47.20;;;25.30;;
53483;SDS011;75581;50.088;19.966;2024-03-07T10:22:23;41.30;;;22.40;;
53483;SDS011;75581;50.088;19.966;2024-03-07T10:24:53;44.30;;;24.60;;
53483;SDS011;75581;50.088;19.966;2024-03-07T10:27:27;44.50;;;24.50;;
53483;SDS011;75581;50.088;19.966;2024-03-07T10:29:57;41.60;;;24.30;;
53483;SDS011;75581;50.088;19.966;2024-03-07T10:32:27;39.80;;;23.00;;
53483;SDS011;75581;50.088;19.966;2024-03-07T10:34:59;41.10;;;24.10;;
53483;SDS011;75581;50.088;19.966;2024-03-07T10:37:28;43.90;;;24.00;;
53483;SDS011;75581;50.088;19.966;2024-03-07T10:39:59;40.20;;;24.10;;
53483;SDS011;75581;50.088;19.966;2024-03-07T10:42:29;42.60;;;24.60;;
53483;SDS011;75581;50.088;19.966;2024-03-07T10:45:00;36.90;;;21.90;;
53483;SDS011;75581;50.088;19.966;2024-03-07T10:47:34;45.10;;;25.60;;
53483;SDS011;75581;50.088;19.966;2024-03-07T10:52:58;43.50;;;24.00;;
53483;SDS011;75581;50.088;19.966;2024-03-07T10:55:33;37.00;;;22.10;;
53483;SDS011;75581;50.088;19.966;2024-03-07T10:58:50;41.00;;;25.00;;
53483;SDS011;75581;50.088;19.966;2024-03-07T11:01:22;40.70;;;23.10;;
53483;SDS011;75581;50.088;19.966;2024-03-07T11:03:54;40.50;;;23.30;;
53483;SDS011;75581;50.088;19.966;2024-03-07T11:06:26;48.10;;;25.60;;
53483;SDS011;75581;50.088;19.966;2024-03-07T11:08:55;40.20;;;23.90;;
53483;SDS011;75581;50.088;19.966;2024-03-07T11:11:27;38.10;;;23.30;;
53483;SDS011;75581;50.088;19.966;2024-03-07T11:13:57;41.90;;;23.20;;
53483;SDS011;75581;50.088;19.966;2024-03-07T11:16:28;40.70;;;22.90;;
53483;SDS011;75581;50.088;19.966;2024-03-07T11:22:05;41.70;;;22.80;;
53483;SDS011;75581;50.088;19.966;2024-03-07T11:24:44;39.70;;;24.00;;
53483;SDS011;75581;50.088;19.966;2024-03-07T11:27:39;36.90;;;21.80;;
53483;SDS011;75581;50.088;19.966;2024-03-07T11:30:10;39.10;;;23.00;;
53483;SDS011;75581;50.088;19.966;2024-03-07T11:32:40;40.30;;;22.60;;
53483;SDS011;75581;50.088;19.966;2024-03-07T11:35:13;33.80;;;22.50;;
53483;SDS011;75581;50.088;19.966;2024-03-07T11:37:43;40.20;;;22.70;;
53483;SDS011;75581;50.088;19.966;2024-03-07T11:41:02;39.60;;;22.80;;
53483;SDS011;75581;50.088;19.966;2024-03-07T11:43:08;30.00;;;19.70;;
53483;SDS011;75581;50.088;19.966;2024-03-07T11:45:39;36.30;;;21.40;;
53483;SDS011;75581;50.088;19.966;2024-03-07T11:48:13;40.60;;;22.10;;
53483;SDS011;75581;50.088;19.966;2024-03-07T11:50:43;37.60;;;21.80;;
53483;SDS011;75581;50.088;19.966;2024-03-07T11:53:12;39.30;;;23.50;;
53483;SDS011;75581;50.088;19.966;2024-03-07T11:55:42;37.80;;;21.90;;
53483;SDS011;75581;50.088;19.966;2024-03-07T11:58:15;36.00;;;22.50;;
53483;SDS011;75581;50.088;19.966;2024-03-07T12:00:46;41.30;;;23.00;;
53483;SDS011;75581;50.088;19.966;2024-03-07T12:03:16;37.10;;;22.90;;
53483;SDS011;75581;50.088;19.966;2024-03-07T12:05:47;40.50;;;23.70;;
53483;SDS011;75581;50.088;19.966;2024-03-07T12:08:17;37.80;;;22.80;;
53483;SDS011;75581;50.088;19.966;2024-03-07T12:10:55;42.70;;;23.30;;
53483;SDS011;75581;50.088;19.966;2024-03-07T12:13:27;35.30;;;21.50;;
53483;SDS011;75581;50.088;19.966;2024-03-07T12:15:57;37.70;;;22.30;;
53483;SDS011;75581;50.088;19.966;2024-03-07T12:18:27;43.30;;;22.70;;
53483;SDS011;75581;50.088;19.966;2024-03-07T12:20:58;43.30;;;21.70;;
53483;SDS011;75581;50.088;19.966;2024-03-07T12:23:39;37.70;;;22.30;;
53483;SDS011;75581;50.088;19.966;2024-03-07T12:26:09;43.10;;;23.40;;
53483;SDS011;75581;50.088;19.966;2024-03-07T12:28:43;41.90;;;24.00;;
53483;SDS011;75581;50.088;19.966;2024-03-07T12:31:12;39.60;;;22.10;;
53483;SDS011;75581;50.088;19.966;2024-03-07T12:33:45;40.50;;;22.70;;
53483;SDS011;75581;50.088;19.966;2024-03-07T12:36:20;42.80;;;22.60;;
53483;SDS011;75581;50.088;19.966;2024-03-07T12:38:54;40.50;;;22.30;;
53483;SDS011;75581;50.088;19.966;2024-03-07T12:41:25;37.90;;;22.30;;
53483;SDS011;75581;50.088;19.966;2024-03-07T12:43:54;40.30;;;23.10;;
53483;SDS011;75581;50.088;19.966;2024-03-07T12:46:24;38.50;;;22.00;;
53483;SDS011;75581;50.088;19.966;2024-03-07T12:48:53;40.60;;;21.70;;
53483;SDS011;75581;50.088;19.966;2024-03-07T12:51:26;36.50;;;21.30;;
53483;SDS011;75581;50.088;19.966;2024-03-07T12:53:56;34.80;;;21.60;;
53483;SDS011;75581;50.088;19.966;2024-03-07T12:56:25;35.60;;;21.40;;
53483;SDS011;75581;50.088;19.966;2024-03-07T12:58:55;36.70;;;20.00;;
53483;SDS011;75581;50.088;19.966;2024-03-07T13:01:28;33.80;;;20.30;;
53483;SDS011;75581;50.088;19.966;2024-03-07T13:03:58;39.80;;;21.40;;
53483;SDS011;75581;50.088;19.966;2024-03-07T13:06:28;32.30;;;20.80;;
53483;SDS011;75581;50.088;19.966;2024-03-07T13:08:58;37.20;;;22.10;;
53483;SDS011;75581;50.088;19.966;2024-03-07T13:11:28;36.30;;;20.60;;
53483;SDS011;75581;50.088;19.966;2024-03-07T13:14:00;31.90;;;19.70;;
53483;SDS011;75581;50.088;19.966;2024-03-07T13:16:30;38.90;;;21.60;;
53483;SDS011;75581;50.088;19.966;2024-03-07T13:19:00;30.10;;;18.90;;
53483;SDS011;75581;50.088;19.966;2024-03-07T13:21:33;32.70;;;18.50;;
53483;SDS011;75581;50.088;19.966;2024-03-07T13:24:04;29.70;;;18.20;;
53483;SDS011;75581;50.088;19.966;2024-03-07T13:26:34;31.10;;;19.10;;
53483;SDS011;75581;50.088;19.966;2024-03-07T13:29:05;35.50;;;19.20;;
53483;SDS011;75581;50.088;19.966;2024-03-07T13:31:34;31.00;;;19.30;;
53483;SDS011;75581;50.088;19.966;2024-03-07T13:34:04;32.30;;;18.70;;
53483;SDS011;75581;50.088;19.966;2024-03-07T13:36:33;31.40;;;17.70;;
53483;SDS011;75581;50.088;19.966;2024-03-07T13:39:03;29.50;;;18.10;;
53483;SDS011;75581;50.088;19.966;2024-03-07T13:41:36;28.80;;;17.00;;
53483;SDS011;75581;50.088;19.966;2024-03-07T13:44:05;29.50;;;17.30;;
53483;SDS011;75581;50.088;19.966;2024-03-07T13:46:35;30.40;;;16.90;;
53483;SDS011;75581;50.088;19.966;2024-03-07T13:49:04;29.20;;;16.70;;
53483;SDS011;75581;50.088;19.966;2024-03-07T13:51:41;28.90;;;15.80;;
53483;SDS011;75581;50.088;19.966;2024-03-07T13:54:22;23.70;;;16.10;;
53483;SDS011;75581;50.088;19.966;2024-03-07T14:23:10;21.30;;;13.50;;
53483;SDS011;75581;50.088;19.966;2024-03-07T14:31:42;25.90;;;15.40;;
53483;SDS011;75581;50.088;19.966;2024-03-07T14:36:57;24.50;;;14.90;;
53483;SDS011;75581;50.088;19.966;2024-03-07T14:39:33;24.00;;;14.40;;
53483;SDS011;75581;50.088;19.966;2024-03-07T14:42:04;24.60;;;14.90;;
53483;SDS011;75581;50.088;19.966;2024-03-07T14:44:38;23.00;;;14.10;;
53483;SDS011;75581;50.088;19.966;2024-03-07T14:47:10;22.50;;;14.60;;
53483;SDS011;75581;50.088;19.966;2024-03-07T14:49:39;24.90;;;14.40;;
53483;SDS011;75581;50.088;19.966;2024-03-07T14:52:09;28.10;;;14.60;;
53483;SDS011;75581;50.088;19.966;2024-03-07T14:54:39;24.50;;;14.90;;
53483;SDS011;75581;50.088;19.966;2024-03-07T14:57:12;21.10;;;13.10;;
53483;SDS011;75581;50.088;19.966;2024-03-07T14:59:42;21.40;;;13.90;;
53483;SDS011;75581;50.088;19.966;2024-03-07T15:02:11;20.90;;;13.60;;
53483;SDS011;75581;50.088;19.966;2024-03-07T15:04:42;23.90;;;14.20;;
53483;SDS011;75581;50.088;19.966;2024-03-07T15:07:12;24.60;;;13.70;;
53483;SDS011;75581;50.088;19.966;2024-03-07T15:09:41;23.60;;;13.60;;